sensor_id;sensor_type;location;lat;lon;timestamp;temperature;humidity
33943;DHT22;66763;47.856;17.462;2023-03-01T00:01:14;11.60;46.20
33943;DHT22;66763;47.856;17.462;2023-03-01T00:03:41;11.60;46.20
33943;DHT22;66763;47.856;17.462;2023-03-01T00:06:06;11.60;46.10
33943;DHT22;66763;47.856;17.462;2023-03-01T00:08:32;11.60;46.10
33943;DHT22;66763;47.856;17.462;2023-03-01T00:11:02;11.60;46.10
33943;DHT22;66763;47.856;17.462;2023-03-01T00:13:28;11.60;46.10
33943;DHT22;66763;47.856;17.462;2023-03-01T00:15:53;11.50;46.10
33943;DHT22;66763;47.856;17.462;2023-03-01T00:18:19;11.60;46.10
33943;DHT22;66763;47.856;17.462;2023-03-01T00:20:54;11.50;46.00
33943;DHT22;66763;47.856;17.462;2023-03-01T00:23:20;11.50;46.20
33943;DHT22;66763;47.856;17.462;2023-03-01T00:25:46;11.50;46.10
33943;DHT22;66763;47.856;17.462;2023-03-01T00:28:11;11.50;46.10
33943;DHT22;66763;47.856;17.462;2023-03-01T00:30:37;11.50;46.10
33943;DHT22;66763;47.856;17.462;2023-03-01T00:33:02;11.50;46.10
33943;DHT22;66763;47.856;17.462;2023-03-01T00:35:28;11.50;46.10
33943;DHT22;66763;47.856;17.462;2023-03-01T00:37:53;11.50;46.10
33943;DHT22;66763;47.856;17.462;2023-03-01T00:40:23;11.50;46.20
33943;DHT22;66763;47.856;17.462;2023-03-01T00:42:49;11.50;46.10
33943;DHT22;66763;47.856;17.462;2023-03-01T00:45:14;11.50;46.10
33943;DHT22;66763;47.856;17.462;2023-03-01T00:47:40;11.40;46.00
33943;DHT22;66763;47.856;17.462;2023-03-01T00:50:06;11.50;46.00
33943;DHT22;66763;47.856;17.462;2023-03-01T00:52:31;11.50;46.10
33943;DHT22;66763;47.856;17.462;2023-03-01T00:54:57;11.50;46.10
33943;DHT22;66763;47.856;17.462;2023-03-01T00:57:23;11.40;46.10
33943;DHT22;66763;47.856;17.462;2023-03-01T00:59:48;11.40;46.00
33943;DHT22;66763;47.856;17.462;2023-03-01T01:02:14;11.40;46.10
33943;DHT22;66763;47.856;17.462;2023-03-01T01:04:39;11.40;46.10
33943;DHT22;66763;47.856;17.462;2023-03-01T01:07:05;11.40;46.00
33943;DHT22;66763;47.856;17.462;2023-03-01T01:09:30;11.40;46.00
33943;DHT22;66763;47.856;17.462;2023-03-01T01:11:56;11.40;46.00
33943;DHT22;66763;47.856;17.462;2023-03-01T01:14:22;11.40;46.10
33943;DHT22;66763;47.856;17.462;2023-03-01T01:16:47;11.40;46.10
33943;DHT22;66763;47.856;17.462;2023-03-01T01:19:13;11.40;46.10
33943;DHT22;66763;47.856;17.462;2023-03-01T01:21:39;11.40;46.10
33943;DHT22;66763;47.856;17.462;2023-03-01T01:24:04;11.40;46.10
33943;DHT22;66763;47.856;17.462;2023-03-01T01:26:31;11.30;46.00
33943;DHT22;66763;47.856;17.462;2023-03-01T01:28:57;11.40;46.00
33943;DHT22;66763;47.856;17.462;2023-03-01T01:31:23;11.40;46.10
33943;DHT22;66763;47.856;17.462;2023-03-01T01:33:49;11.40;46.10
33943;DHT22;66763;47.856;17.462;2023-03-01T01:36:15;11.40;46.10
33943;DHT22;66763;47.856;17.462;2023-03-01T01:38:41;11.30;45.80
33943;DHT22;66763;47.856;17.462;2023-03-01T01:41:08;11.30;45.90
33943;DHT22;66763;47.856;17.462;2023-03-01T01:43:36;11.30;45.90
33943;DHT22;66763;47.856;17.462;2023-03-01T01:48:45;11.30;46.00
33943;DHT22;66763;47.856;17.462;2023-03-01T01:51:17;11.30;46.10
33943;DHT22;66763;47.856;17.462;2023-03-01T01:53:44;11.40;46.00
33943;DHT22;66763;47.856;17.462;2023-03-01T01:56:11;11.30;46.00
33943;DHT22;66763;47.856;17.462;2023-03-01T01:58:38;11.30;46.10
33943;DHT22;66763;47.856;17.462;2023-03-01T02:01:04;11.30;46.10
33943;DHT22;66763;47.856;17.462;2023-03-01T02:03:30;11.30;46.10
33943;DHT22;66763;47.856;17.462;2023-03-01T02:06:12;11.30;46.00
33943;DHT22;66763;47.856;17.462;2023-03-01T02:08:39;11.30;46.10
33943;DHT22;66763;47.856;17.462;2023-03-01T02:11:06;11.30;46.00
33943;DHT22;66763;47.856;17.462;2023-03-01T02:13:33;11.30;46.10
33943;DHT22;66763;47.856;17.462;2023-03-01T02:15:59;11.30;46.00
33943;DHT22;66763;47.856;17.462;2023-03-01T02:18:25;11.30;46.00
33943;DHT22;66763;47.856;17.462;2023-03-01T02:23:35;11.30;46.10
33943;DHT22;66763;47.856;17.462;2023-03-01T02:26:02;11.30;46.00
33943;DHT22;66763;47.856;17.462;2023-03-01T02:28:40;11.30;46.10
33943;DHT22;66763;47.856;17.462;2023-03-01T02:31:08;11.20;46.10
33943;DHT22;66763;47.856;17.462;2023-03-01T02:33:53;11.30;46.20
33943;DHT22;66763;47.856;17.462;2023-03-01T02:36:20;11.30;46.40
33943;DHT22;66763;47.856;17.462;2023-03-01T02:38:48;11.40;46.40
33943;DHT22;66763;47.856;17.462;2023-03-01T02:41:15;11.60;46.20
33943;DHT22;66763;47.856;17.462;2023-03-01T02:43:41;11.90;45.90
33943;DHT22;66763;47.856;17.462;2023-03-01T02:46:08;12.00;45.50
33943;DHT22;66763;47.856;17.462;2023-03-01T02:48:45;12.30;45.20
33943;DHT22;66763;47.856;17.462;2023-03-01T02:51:14;12.50;45.00
33943;DHT22;66763;47.856;17.462;2023-03-01T02:53:51;12.60;44.60
33943;DHT22;66763;47.856;17.462;2023-03-01T02:56:20;12.80;44.40
33943;DHT22;66763;47.856;17.462;2023-03-01T02:58:45;12.90;44.20
33943;DHT22;66763;47.856;17.462;2023-03-01T03:01:13;13.10;44.00
33943;DHT22;66763;47.856;17.462;2023-03-01T03:03:40;13.20;43.90
33943;DHT22;66763;47.856;17.462;2023-03-01T03:06:06;13.30;43.70
33943;DHT22;66763;47.856;17.462;2023-03-01T03:08:31;13.40;43.50
33943;DHT22;66763;47.856;17.462;2023-03-01T03:10:57;13.40;43.40
33943;DHT22;66763;47.856;17.462;2023-03-01T03:13:22;13.50;43.40
33943;DHT22;66763;47.856;17.462;2023-03-01T03:15:56;13.50;43.30
33943;DHT22;66763;47.856;17.462;2023-03-01T03:18:22;13.50;43.30
33943;DHT22;66763;47.856;17.462;2023-03-01T03:20:51;13.40;43.30
33943;DHT22;66763;47.856;17.462;2023-03-01T03:23:18;13.40;43.40
33943;DHT22;66763;47.856;17.462;2023-03-01T03:25:44;13.40;43.50
33943;DHT22;66763;47.856;17.462;2023-03-01T03:28:10;13.30;43.60
33943;DHT22;66763;47.856;17.462;2023-03-01T03:30:36;13.30;43.60
33943;DHT22;66763;47.856;17.462;2023-03-01T03:33:04;13.20;43.70
33943;DHT22;66763;47.856;17.462;2023-03-01T03:35:31;13.20;43.80
33943;DHT22;66763;47.856;17.462;2023-03-01T03:37:57;13.10;43.90
33943;DHT22;66763;47.856;17.462;2023-03-01T03:40:41;13.10;44.00
33943;DHT22;66763;47.856;17.462;2023-03-01T03:43:09;13.00;44.10
33943;DHT22;66763;47.856;17.462;2023-03-01T03:45:35;13.00;44.20
33943;DHT22;66763;47.856;17.462;2023-03-01T03:48:01;13.00;44.30
33943;DHT22;66763;47.856;17.462;2023-03-01T03:50:27;12.90;44.30
33943;DHT22;66763;47.856;17.462;2023-03-01T03:52:52;12.90;44.50
33943;DHT22;66763;47.856;17.462;2023-03-01T03:55:18;12.80;44.50
33943;DHT22;66763;47.856;17.462;2023-03-01T03:57:45;12.80;44.60
33943;DHT22;66763;47.856;17.462;2023-03-01T04:00:15;12.70;44.60
33943;DHT22;66763;47.856;17.462;2023-03-01T04:02:41;12.70;44.70
33943;DHT22;66763;47.856;17.462;2023-03-01T04:05:08;12.60;44.70
33943;DHT22;66763;47.856;17.462;2023-03-01T04:07:34;12.60;44.80
33943;DHT22;66763;47.856;17.462;2023-03-01T04:10:00;12.50;44.80
33943;DHT22;66763;47.856;17.462;2023-03-01T04:12:25;12.50;44.90
33943;DHT22;66763;47.856;17.462;2023-03-01T04:14:50;12.50;45.00
33943;DHT22;66763;47.856;17.462;2023-03-01T04:17:16;12.40;45.00
33943;DHT22;66763;47.856;17.462;2023-03-01T04:19:41;12.40;45.00
33943;DHT22;66763;47.856;17.462;2023-03-01T04:22:09;12.40;45.20
33943;DHT22;66763;47.856;17.462;2023-03-01T04:24:36;12.30;45.20
33943;DHT22;66763;47.856;17.462;2023-03-01T04:27:02;12.30;45.30
33943;DHT22;66763;47.856;17.462;2023-03-01T04:29:27;12.30;45.30
33943;DHT22;66763;47.856;17.462;2023-03-01T04:31:53;12.20;45.40
33943;DHT22;66763;47.856;17.462;2023-03-01T04:34:18;12.20;45.40
33943;DHT22;66763;47.856;17.462;2023-03-01T04:36:44;12.10;45.40
33943;DHT22;66763;47.856;17.462;2023-03-01T04:39:09;12.20;45.60
33943;DHT22;66763;47.856;17.462;2023-03-01T04:41:38;12.10;45.60
33943;DHT22;66763;47.856;17.462;2023-03-01T04:44:04;12.10;45.60
33943;DHT22;66763;47.856;17.462;2023-03-01T04:46:30;12.10;45.60
33943;DHT22;66763;47.856;17.462;2023-03-01T04:48:55;12.10;45.60
33943;DHT22;66763;47.856;17.462;2023-03-01T04:51:21;12.10;45.70
33943;DHT22;66763;47.856;17.462;2023-03-01T04:53:46;12.10;45.60
33943;DHT22;66763;47.856;17.462;2023-03-01T04:56:12;12.10;45.60
33943;DHT22;66763;47.856;17.462;2023-03-01T04:58:41;12.10;45.70
33943;DHT22;66763;47.856;17.462;2023-03-01T05:01:10;12.00;45.70
33943;DHT22;66763;47.856;17.462;2023-03-01T05:03:41;12.00;45.70
33943;DHT22;66763;47.856;17.462;2023-03-01T05:06:07;12.00;45.70
33943;DHT22;66763;47.856;17.462;2023-03-01T05:08:32;12.00;45.70
33943;DHT22;66763;47.856;17.462;2023-03-01T05:10:59;12.10;45.80
33943;DHT22;66763;47.856;17.462;2023-03-01T05:13:25;12.00;45.70
33943;DHT22;66763;47.856;17.462;2023-03-01T05:15:54;12.00;45.70
33943;DHT22;66763;47.856;17.462;2023-03-01T05:18:20;12.00;45.70
33943;DHT22;66763;47.856;17.462;2023-03-01T05:20:45;12.00;45.70
33943;DHT22;66763;47.856;17.462;2023-03-01T05:23:11;12.00;45.70
33943;DHT22;66763;47.856;17.462;2023-03-01T05:25:37;12.00;45.70
33943;DHT22;66763;47.856;17.462;2023-03-01T05:28:05;12.00;45.70
33943;DHT22;66763;47.856;17.462;2023-03-01T05:30:32;12.00;45.70
33943;DHT22;66763;47.856;17.462;2023-03-01T05:32:58;11.90;45.70
33943;DHT22;66763;47.856;17.462;2023-03-01T05:35:23;11.90;45.70
33943;DHT22;66763;47.856;17.462;2023-03-01T05:37:49;11.90;45.80
33943;DHT22;66763;47.856;17.462;2023-03-01T05:40:16;11.90;45.80
33943;DHT22;66763;47.856;17.462;2023-03-01T05:43:03;11.90;45.80
33943;DHT22;66763;47.856;17.462;2023-03-01T05:45:30;11.90;45.80
33943;DHT22;66763;47.856;17.462;2023-03-01T05:47:57;11.90;45.80
33943;DHT22;66763;47.856;17.462;2023-03-01T05:50:24;11.80;45.80
33943;DHT22;66763;47.856;17.462;2023-03-01T05:52:51;11.80;45.80
33943;DHT22;66763;47.856;17.462;2023-03-01T05:55:18;11.90;45.80
33943;DHT22;66763;47.856;17.462;2023-03-01T05:57:44;11.80;45.80
33943;DHT22;66763;47.856;17.462;2023-03-01T06:00:10;11.80;45.80
33943;DHT22;66763;47.856;17.462;2023-03-01T06:02:35;11.80;45.80
33943;DHT22;66763;47.856;17.462;2023-03-01T06:05:01;11.80;45.80
33943;DHT22;66763;47.856;17.462;2023-03-01T06:07:27;11.80;45.80
33943;DHT22;66763;47.856;17.462;2023-03-01T06:09:53;11.80;45.90
33943;DHT22;66763;47.856;17.462;2023-03-01T06:12:18;11.80;45.90
33943;DHT22;66763;47.856;17.462;2023-03-01T06:14:44;11.80;45.90
33943;DHT22;66763;47.856;17.462;2023-03-01T06:17:10;11.80;45.80
33943;DHT22;66763;47.856;17.462;2023-03-01T06:19:36;11.80;45.90
33943;DHT22;66763;47.856;17.462;2023-03-01T06:22:01;11.80;45.80
33943;DHT22;66763;47.856;17.462;2023-03-01T06:24:26;11.80;45.90
33943;DHT22;66763;47.856;17.462;2023-03-01T06:26:53;11.80;45.80
33943;DHT22;66763;47.856;17.462;2023-03-01T06:29:19;11.70;45.80
33943;DHT22;66763;47.856;17.462;2023-03-01T06:31:45;11.70;45.80
33943;DHT22;66763;47.856;17.462;2023-03-01T06:34:11;11.70;45.80
33943;DHT22;66763;47.856;17.462;2023-03-01T06:36:38;11.70;45.80
33943;DHT22;66763;47.856;17.462;2023-03-01T06:39:05;11.70;45.80
33943;DHT22;66763;47.856;17.462;2023-03-01T06:41:30;11.70;45.80
33943;DHT22;66763;47.856;17.462;2023-03-01T06:43:56;11.70;45.80
33943;DHT22;66763;47.856;17.462;2023-03-01T06:46:21;11.70;45.80
33943;DHT22;66763;47.856;17.462;2023-03-01T06:48:47;11.60;45.80
33943;DHT22;66763;47.856;17.462;2023-03-01T06:51:13;11.70;45.90
33943;DHT22;66763;47.856;17.462;2023-03-01T06:53:38;11.60;45.80
33943;DHT22;66763;47.856;17.462;2023-03-01T06:56:04;11.70;45.90
33943;DHT22;66763;47.856;17.462;2023-03-01T06:58:29;11.60;45.80
33943;DHT22;66763;47.856;17.462;2023-03-01T07:00:55;11.70;45.90
33943;DHT22;66763;47.856;17.462;2023-03-01T07:03:20;11.60;45.90
33943;DHT22;66763;47.856;17.462;2023-03-01T07:05:48;11.60;46.50
33943;DHT22;66763;47.856;17.462;2023-03-01T07:08:14;11.60;45.90
33943;DHT22;66763;47.856;17.462;2023-03-01T07:10:39;11.60;46.00
33943;DHT22;66763;47.856;17.462;2023-03-01T07:13:05;11.60;45.90
33943;DHT22;66763;47.856;17.462;2023-03-01T07:15:32;11.60;45.90
33943;DHT22;66763;47.856;17.462;2023-03-01T07:17:58;11.60;45.90
33943;DHT22;66763;47.856;17.462;2023-03-01T07:20:23;11.60;46.60
33943;DHT22;66763;47.856;17.462;2023-03-01T07:22:51;11.50;46.00
33943;DHT22;66763;47.856;17.462;2023-03-01T07:25:16;11.50;45.90
33943;DHT22;66763;47.856;17.462;2023-03-01T07:27:42;11.50;45.90
33943;DHT22;66763;47.856;17.462;2023-03-01T07:30:08;11.50;46.00
33943;DHT22;66763;47.856;17.462;2023-03-01T07:32:33;11.50;46.00
33943;DHT22;66763;47.856;17.462;2023-03-01T07:34:59;11.50;46.00
33943;DHT22;66763;47.856;17.462;2023-03-01T07:37:24;11.50;46.00
33943;DHT22;66763;47.856;17.462;2023-03-01T07:39:50;11.50;46.00
33943;DHT22;66763;47.856;17.462;2023-03-01T07:42:15;11.50;46.00
33943;DHT22;66763;47.856;17.462;2023-03-01T07:44:41;11.50;46.00
33943;DHT22;66763;47.856;17.462;2023-03-01T07:47:06;11.50;46.00
33943;DHT22;66763;47.856;17.462;2023-03-01T07:49:32;11.50;46.00
33943;DHT22;66763;47.856;17.462;2023-03-01T07:51:57;11.50;46.00
33943;DHT22;66763;47.856;17.462;2023-03-01T07:54:23;11.50;46.00
33943;DHT22;66763;47.856;17.462;2023-03-01T07:56:49;11.40;45.90
33943;DHT22;66763;47.856;17.462;2023-03-01T07:59:14;11.50;46.00
33943;DHT22;66763;47.856;17.462;2023-03-01T08:01:40;11.50;46.00
33943;DHT22;66763;47.856;17.462;2023-03-01T08:04:06;11.40;46.00
33943;DHT22;66763;47.856;17.462;2023-03-01T08:06:33;11.40;46.00
33943;DHT22;66763;47.856;17.462;2023-03-01T08:08:59;11.50;46.00
33943;DHT22;66763;47.856;17.462;2023-03-01T08:11:24;11.50;46.00
33943;DHT22;66763;47.856;17.462;2023-03-01T08:13:50;11.50;46.00
33943;DHT22;66763;47.856;17.462;2023-03-01T08:16:15;11.40;45.90
33943;DHT22;66763;47.856;17.462;2023-03-01T08:18:41;11.40;45.90
33943;DHT22;66763;47.856;17.462;2023-03-01T08:21:08;11.40;45.90
33943;DHT22;66763;47.856;17.462;2023-03-01T08:23:34;11.40;46.00
33943;DHT22;66763;47.856;17.462;2023-03-01T08:26:07;11.50;46.00
33943;DHT22;66763;47.856;17.462;2023-03-01T08:28:33;11.40;46.00
33943;DHT22;66763;47.856;17.462;2023-03-01T08:30:58;11.40;46.00
33943;DHT22;66763;47.856;17.462;2023-03-01T08:33:24;11.40;46.00
33943;DHT22;66763;47.856;17.462;2023-03-01T08:35:49;11.40;46.00
33943;DHT22;66763;47.856;17.462;2023-03-01T08:38:15;11.40;46.00
33943;DHT22;66763;47.856;17.462;2023-03-01T08:40:40;11.40;46.00
33943;DHT22;66763;47.856;17.462;2023-03-01T08:43:05;11.40;46.00
33943;DHT22;66763;47.856;17.462;2023-03-01T08:45:31;11.40;46.00
33943;DHT22;66763;47.856;17.462;2023-03-01T08:47:56;11.40;46.00
33943;DHT22;66763;47.856;17.462;2023-03-01T08:50:22;11.40;46.00
33943;DHT22;66763;47.856;17.462;2023-03-01T08:52:49;11.40;46.10
33943;DHT22;66763;47.856;17.462;2023-03-01T08:55:15;11.40;46.00
33943;DHT22;66763;47.856;17.462;2023-03-01T08:57:42;11.40;46.10
33943;DHT22;66763;47.856;17.462;2023-03-01T09:00:08;11.40;46.10
33943;DHT22;66763;47.856;17.462;2023-03-01T09:02:34;11.40;46.10
33943;DHT22;66763;47.856;17.462;2023-03-01T09:04:59;11.40;46.10
33943;DHT22;66763;47.856;17.462;2023-03-01T09:07:26;11.40;46.10
33943;DHT22;66763;47.856;17.462;2023-03-01T09:09:53;11.40;46.10
33943;DHT22;66763;47.856;17.462;2023-03-01T09:12:19;11.30;46.00
33943;DHT22;66763;47.856;17.462;2023-03-01T09:14:44;11.40;46.10
33943;DHT22;66763;47.856;17.462;2023-03-01T09:17:10;11.40;46.10
33943;DHT22;66763;47.856;17.462;2023-03-01T09:19:36;11.30;46.10
33943;DHT22;66763;47.856;17.462;2023-03-01T09:22:02;11.40;46.10
33943;DHT22;66763;47.856;17.462;2023-03-01T09:24:28;11.30;46.10
33943;DHT22;66763;47.856;17.462;2023-03-01T09:26:54;11.30;46.10
33943;DHT22;66763;47.856;17.462;2023-03-01T09:29:20;11.30;46.10
33943;DHT22;66763;47.856;17.462;2023-03-01T09:31:46;11.30;46.70
33943;DHT22;66763;47.856;17.462;2023-03-01T09:34:11;11.30;46.10
33943;DHT22;66763;47.856;17.462;2023-03-01T09:36:39;11.30;46.10
33943;DHT22;66763;47.856;17.462;2023-03-01T09:39:04;11.30;46.10
33943;DHT22;66763;47.856;17.462;2023-03-01T09:44:07;11.30;46.10
33943;DHT22;66763;47.856;17.462;2023-03-01T09:46:37;11.30;46.10
33943;DHT22;66763;47.856;17.462;2023-03-01T09:49:05;11.30;46.10
33943;DHT22;66763;47.856;17.462;2023-03-01T09:51:35;11.30;46.20
33943;DHT22;66763;47.856;17.462;2023-03-01T09:54:01;11.30;46.20
33943;DHT22;66763;47.856;17.462;2023-03-01T09:56:38;11.30;46.20
33943;DHT22;66763;47.856;17.462;2023-03-01T10:04:39;11.30;46.20
33943;DHT22;66763;47.856;17.462;2023-03-01T10:07:12;11.30;46.20
33943;DHT22;66763;47.856;17.462;2023-03-01T10:09:43;11.30;46.20
33943;DHT22;66763;47.856;17.462;2023-03-01T10:12:10;11.30;46.20
33943;DHT22;66763;47.856;17.462;2023-03-01T10:14:38;11.30;46.20
33943;DHT22;66763;47.856;17.462;2023-03-01T10:17:09;11.30;46.30
33943;DHT22;66763;47.856;17.462;2023-03-01T10:19:41;11.30;46.20
33943;DHT22;66763;47.856;17.462;2023-03-01T10:22:24;11.30;46.30
33943;DHT22;66763;47.856;17.462;2023-03-01T10:24:53;11.30;46.20
33943;DHT22;66763;47.856;17.462;2023-03-01T10:27:22;11.20;46.20
33943;DHT22;66763;47.856;17.462;2023-03-01T10:29:50;11.30;46.30
33943;DHT22;66763;47.856;17.462;2023-03-01T10:32:20;11.30;46.30
33943;DHT22;66763;47.856;17.462;2023-03-01T10:34:47;11.30;46.30
33943;DHT22;66763;47.856;17.462;2023-03-01T10:37:16;11.30;46.30
33943;DHT22;66763;47.856;17.462;2023-03-01T10:42:47;11.30;46.30
33943;DHT22;66763;47.856;17.462;2023-03-01T10:47:44;11.40;46.50
33943;DHT22;66763;47.856;17.462;2023-03-01T10:50:27;11.50;46.30
33943;DHT22;66763;47.856;17.462;2023-03-01T10:52:59;11.80;46.10
33943;DHT22;66763;47.856;17.462;2023-03-01T10:58:05;12.20;45.40
33943;DHT22;66763;47.856;17.462;2023-03-01T11:00:31;12.40;45.10
33943;DHT22;66763;47.856;17.462;2023-03-01T11:05:24;12.80;44.60
33943;DHT22;66763;47.856;17.462;2023-03-01T11:07:56;12.90;44.40
33943;DHT22;66763;47.856;17.462;2023-03-01T11:10:59;13.00;44.20
33943;DHT22;66763;47.856;17.462;2023-03-01T11:13:14;13.20;44.10
33943;DHT22;66763;47.856;17.462;2023-03-01T11:15:40;13.30;43.90
33943;DHT22;66763;47.856;17.462;2023-03-01T11:18:16;13.40;43.80
33943;DHT22;66763;47.856;17.462;2023-03-01T11:20:43;13.40;43.70
33943;DHT22;66763;47.856;17.462;2023-03-01T11:23:10;13.50;43.70
33943;DHT22;66763;47.856;17.462;2023-03-01T11:25:36;13.50;43.60
33943;DHT22;66763;47.856;17.462;2023-03-01T11:28:04;13.50;43.60
33943;DHT22;66763;47.856;17.462;2023-03-01T11:35:33;13.40;43.70
33943;DHT22;66763;47.856;17.462;2023-03-01T11:38:04;13.30;43.80
33943;DHT22;66763;47.856;17.462;2023-03-01T11:40:49;13.30;44.00
33943;DHT22;66763;47.856;17.462;2023-03-01T11:45:51;13.20;44.10
33943;DHT22;66763;47.856;17.462;2023-03-01T11:48:25;13.10;44.10
33943;DHT22;66763;47.856;17.462;2023-03-01T11:50:56;13.10;44.30
33943;DHT22;66763;47.856;17.462;2023-03-01T11:58:27;12.90;44.60
33943;DHT22;66763;47.856;17.462;2023-03-01T12:01:07;12.90;44.70
33943;DHT22;66763;47.856;17.462;2023-03-01T12:08:52;12.80;45.00
33943;DHT22;66763;47.856;17.462;2023-03-01T12:37:24;12.30;45.80
33943;DHT22;66763;47.856;17.462;2023-03-01T12:52:41;12.10;46.10
33943;DHT22;66763;47.856;17.462;2023-03-01T12:55:16;12.10;46.20
33943;DHT22;66763;47.856;17.462;2023-03-01T12:57:47;12.10;46.20
33943;DHT22;66763;47.856;17.462;2023-03-01T13:17:48;12.00;46.20
33943;DHT22;66763;47.856;17.462;2023-03-01T13:20:18;12.00;46.30
33943;DHT22;66763;47.856;17.462;2023-03-01T13:22:47;12.00;46.20
33943;DHT22;66763;47.856;17.462;2023-03-01T13:25:14;12.10;46.30
33943;DHT22;66763;47.856;17.462;2023-03-01T13:27:40;12.10;46.20
33943;DHT22;66763;47.856;17.462;2023-03-01T13:30:12;12.00;46.20
33943;DHT22;66763;47.856;17.462;2023-03-01T13:32:51;12.10;46.30
33943;DHT22;66763;47.856;17.462;2023-03-01T13:37:45;12.00;46.20
33943;DHT22;66763;47.856;17.462;2023-03-01T13:43:29;12.00;46.20
33943;DHT22;66763;47.856;17.462;2023-03-01T13:45:34;12.00;46.30
33943;DHT22;66763;47.856;17.462;2023-03-01T13:48:11;12.00;46.20
33943;DHT22;66763;47.856;17.462;2023-03-01T13:50:45;12.00;46.30
33943;DHT22;66763;47.856;17.462;2023-03-01T13:53:17;12.00;46.20
33943;DHT22;66763;47.856;17.462;2023-03-01T13:55:44;12.00;46.20
33943;DHT22;66763;47.856;17.462;2023-03-01T13:58:44;12.00;46.20
33943;DHT22;66763;47.856;17.462;2023-03-01T14:01:03;11.90;46.20
33943;DHT22;66763;47.856;17.462;2023-03-01T14:03:29;12.00;46.30
33943;DHT22;66763;47.856;17.462;2023-03-01T14:08:25;12.00;46.30
33943;DHT22;66763;47.856;17.462;2023-03-01T14:16:19;12.00;46.40
33943;DHT22;66763;47.856;17.462;2023-03-01T14:18:55;11.90;46.40
33943;DHT22;66763;47.856;17.462;2023-03-01T14:21:25;11.90;46.50
33943;DHT22;66763;47.856;17.462;2023-03-01T14:23:51;11.90;46.40
33943;DHT22;66763;47.856;17.462;2023-03-01T14:26:21;11.90;46.40
33943;DHT22;66763;47.856;17.462;2023-03-01T14:28:46;11.90;46.40
33943;DHT22;66763;47.856;17.462;2023-03-01T14:31:30;11.90;46.40
33943;DHT22;66763;47.856;17.462;2023-03-01T14:33:56;11.90;46.40
33943;DHT22;66763;47.856;17.462;2023-03-01T14:36:26;11.80;46.40
33943;DHT22;66763;47.856;17.462;2023-03-01T14:38:52;11.80;46.50
33943;DHT22;66763;47.856;17.462;2023-03-01T14:41:22;11.90;46.50
33943;DHT22;66763;47.856;17.462;2023-03-01T14:46:35;11.80;46.50
33943;DHT22;66763;47.856;17.462;2023-03-01T14:49:05;11.80;46.50
33943;DHT22;66763;47.856;17.462;2023-03-01T14:51:39;11.80;46.50
33943;DHT22;66763;47.856;17.462;2023-03-01T14:54:10;11.80;46.50
33943;DHT22;66763;47.856;17.462;2023-03-01T14:56:44;11.80;46.50
33943;DHT22;66763;47.856;17.462;2023-03-01T14:59:10;11.80;46.50
33943;DHT22;66763;47.856;17.462;2023-03-01T15:01:36;11.80;46.50
33943;DHT22;66763;47.856;17.462;2023-03-01T15:04:01;11.80;46.50
33943;DHT22;66763;47.856;17.462;2023-03-01T15:06:27;11.80;46.60
33943;DHT22;66763;47.856;17.462;2023-03-01T15:08:53;11.80;46.60
33943;DHT22;66763;47.856;17.462;2023-03-01T15:13:48;11.80;46.60
33943;DHT22;66763;47.856;17.462;2023-03-01T15:16:15;11.80;46.60
33943;DHT22;66763;47.856;17.462;2023-03-01T15:18:45;11.80;46.60
33943;DHT22;66763;47.856;17.462;2023-03-01T15:21:18;11.70;46.60
33943;DHT22;66763;47.856;17.462;2023-03-01T15:23:53;11.70;46.60
33943;DHT22;66763;47.856;17.462;2023-03-01T15:26:28;11.70;46.60
33943;DHT22;66763;47.856;17.462;2023-03-01T15:28:54;11.70;46.70
33943;DHT22;66763;47.856;17.462;2023-03-01T15:31:24;11.70;46.70
33943;DHT22;66763;47.856;17.462;2023-03-01T15:33:50;11.70;46.70
33943;DHT22;66763;47.856;17.462;2023-03-01T15:36:29;11.70;46.70
33943;DHT22;66763;47.856;17.462;2023-03-01T15:38:55;11.70;46.70
33943;DHT22;66763;47.856;17.462;2023-03-01T15:41:32;11.60;46.80
33943;DHT22;66763;47.856;17.462;2023-03-01T15:43:58;11.70;46.80
33943;DHT22;66763;47.856;17.462;2023-03-01T15:46:31;11.70;46.70
33943;DHT22;66763;47.856;17.462;2023-03-01T15:49:21;11.70;46.70
33943;DHT22;66763;47.856;17.462;2023-03-01T15:51:43;11.70;46.80
33943;DHT22;66763;47.856;17.462;2023-03-01T15:54:18;11.60;46.70
33943;DHT22;66763;47.856;17.462;2023-03-01T15:56:45;11.70;46.80
33943;DHT22;66763;47.856;17.462;2023-03-01T15:59:11;11.70;46.90
33943;DHT22;66763;47.856;17.462;2023-03-01T16:01:38;11.70;46.80
33943;DHT22;66763;47.856;17.462;2023-03-01T16:04:04;11.60;46.60
33943;DHT22;66763;47.856;17.462;2023-03-01T16:06:29;11.60;46.70
33943;DHT22;66763;47.856;17.462;2023-03-01T16:08:55;11.60;46.60
33943;DHT22;66763;47.856;17.462;2023-03-01T16:11:21;11.60;47.20
33943;DHT22;66763;47.856;17.462;2023-03-01T16:13:47;11.60;46.60
33943;DHT22;66763;47.856;17.462;2023-03-01T16:16:13;11.60;46.70
33943;DHT22;66763;47.856;17.462;2023-03-01T16:18:45;11.60;46.70
33943;DHT22;66763;47.856;17.462;2023-03-01T16:21:14;11.60;46.70
33943;DHT22;66763;47.856;17.462;2023-03-01T16:23:42;11.60;46.80
33943;DHT22;66763;47.856;17.462;2023-03-01T16:26:08;11.60;46.80
33943;DHT22;66763;47.856;17.462;2023-03-01T16:28:33;11.60;46.80
33943;DHT22;66763;47.856;17.462;2023-03-01T16:30:59;11.60;46.80
33943;DHT22;66763;47.856;17.462;2023-03-01T16:33:26;11.60;46.80
33943;DHT22;66763;47.856;17.462;2023-03-01T16:35:52;11.60;46.80
33943;DHT22;66763;47.856;17.462;2023-03-01T16:38:17;11.60;46.80
33943;DHT22;66763;47.856;17.462;2023-03-01T16:40:46;11.60;46.90
33943;DHT22;66763;47.856;17.462;2023-03-01T16:43:12;11.60;46.80
33943;DHT22;66763;47.856;17.462;2023-03-01T16:45:38;11.50;46.70
33943;DHT22;66763;47.856;17.462;2023-03-01T16:48:05;11.60;46.80
33943;DHT22;66763;47.856;17.462;2023-03-01T16:50:31;11.50;46.80
33943;DHT22;66763;47.856;17.462;2023-03-01T16:52:57;11.50;46.80
33943;DHT22;66763;47.856;17.462;2023-03-01T16:55:22;11.60;46.90
33943;DHT22;66763;47.856;17.462;2023-03-01T16:57:48;11.50;46.80
33943;DHT22;66763;47.856;17.462;2023-03-01T17:00:14;11.50;46.80
33943;DHT22;66763;47.856;17.462;2023-03-01T17:02:40;11.50;46.80
33943;DHT22;66763;47.856;17.462;2023-03-01T17:05:06;11.50;46.80
33943;DHT22;66763;47.856;17.462;2023-03-01T17:07:32;11.50;46.80
33943;DHT22;66763;47.856;17.462;2023-03-01T17:10:02;11.50;46.80
33943;DHT22;66763;47.856;17.462;2023-03-01T17:12:30;11.50;46.90
33943;DHT22;66763;47.856;17.462;2023-03-01T17:14:57;11.50;46.90